sensor_id;sensor_type;location;lat;lon;timestamp;P1;durP1;ratioP1;P2;durP2;ratioP2
49860;SDS011;35761;48.826;9.238;2023-04-07T00:00:04;10.07;;;6.30;;
49860;SDS011;35761;48.826;9.238;2023-04-07T00:02:39;8.90;;;6.43;;
49860;SDS011;35761;48.826;9.238;2023-04-07T00:05:10;9.13;;;6.13;;
49860;SDS011;35761;48.826;9.238;2023-04-07T00:07:41;10.88;;;6.45;;
49860;SDS011;35761;48.826;9.238;2023-04-07T00:10:22;10.55;;;6.15;;
49860;SDS011;35761;48.826;9.238;2023-04-07T00:12:53;8.10;;;5.95;;
49860;SDS011;35761;48.826;9.238;2023-04-07T00:15:26;10.52;;;5.85;;
49860;SDS011;35761;48.826;9.238;2023-04-07T00:17:56;7.75;;;5.28;;
49860;SDS011;35761;48.826;9.238;2023-04-07T00:20:27;9.40;;;5.80;;
49860;SDS011;35761;48.826;9.238;2023-04-07T00:22:58;8.63;;;5.57;;
49860;SDS011;35761;48.826;9.238;2023-04-07T00:25:28;10.05;;;5.05;;
49860;SDS011;35761;48.826;9.238;2023-04-07T00:27:59;7.78;;;5.35;;
49860;SDS011;35761;48.826;9.238;2023-04-07T00:30:32;8.27;;;5.18;;
49860;SDS011;35761;48.826;9.238;2023-04-07T00:33:02;7.15;;;5.10;;
49860;SDS011;35761;48.826;9.238;2023-04-07T00:35:35;10.60;;;5.15;;
49860;SDS011;35761;48.826;9.238;2023-04-07T00:38:06;10.85;;;5.57;;
49860;SDS011;35761;48.826;9.238;2023-04-07T00:40:36;8.50;;;4.97;;
49860;SDS011;35761;48.826;9.238;2023-04-07T00:43:06;12.02;;;4.95;;
49860;SDS011;35761;48.826;9.238;2023-04-07T00:45:40;8.10;;;4.85;;
49860;SDS011;35761;48.826;9.238;2023-04-07T00:48:10;8.75;;;4.63;;
49860;SDS011;35761;48.826;9.238;2023-04-07T00:50:41;7.35;;;5.00;;
49860;SDS011;35761;48.826;9.238;2023-04-07T00:53:12;6.97;;;4.82;;
49860;SDS011;35761;48.826;9.238;2023-04-07T00:55:43;7.28;;;4.93;;
49860;SDS011;35761;48.826;9.238;2023-04-07T00:58:14;7.68;;;5.40;;
49860;SDS011;35761;48.826;9.238;2023-04-07T01:00:47;7.88;;;5.30;;
49860;SDS011;35761;48.826;9.238;2023-04-07T01:03:24;8.07;;;5.20;;
49860;SDS011;35761;48.826;9.238;2023-04-07T01:06:01;10.18;;;6.38;;
49860;SDS011;35761;48.826;9.238;2023-04-07T01:08:37;7.10;;;4.97;;
49860;SDS011;35761;48.826;9.238;2023-04-07T01:11:22;7.57;;;5.30;;
49860;SDS011;35761;48.826;9.238;2023-04-07T01:13:57;10.52;;;4.72;;
49860;SDS011;35761;48.826;9.238;2023-04-07T01:16:45;8.57;;;5.32;;
49860;SDS011;35761;48.826;9.238;2023-04-07T01:19:25;9.73;;;5.45;;
49860;SDS011;35761;48.826;9.238;2023-04-07T01:22:09;8.50;;;5.63;;
49860;SDS011;35761;48.826;9.238;2023-04-07T01:24:53;8.70;;;5.40;;
49860;SDS011;35761;48.826;9.238;2023-04-07T01:28:04;8.82;;;5.57;;
49860;SDS011;35761;48.826;9.238;2023-04-07T01:30:52;9.38;;;5.38;;
49860;SDS011;35761;48.826;9.238;2023-04-07T01:33:27;6.78;;;4.82;;
49860;SDS011;35761;48.826;9.238;2023-04-07T01:36:03;8.20;;;5.25;;
49860;SDS011;35761;48.826;9.238;2023-04-07T01:38:35;9.93;;;5.95;;
49860;SDS011;35761;48.826;9.238;2023-04-07T01:41:07;7.28;;;5.32;;
49860;SDS011;35761;48.826;9.238;2023-04-07T01:43:40;10.50;;;5.93;;
49860;SDS011;35761;48.826;9.238;2023-04-07T01:46:14;7.68;;;5.20;;
49860;SDS011;35761;48.826;9.238;2023-04-07T01:48:45;10.43;;;5.43;;
49860;SDS011;35761;48.826;9.238;2023-04-07T01:51:16;8.63;;;5.57;;
49860;SDS011;35761;48.826;9.238;2023-04-07T01:53:50;9.23;;;5.97;;
49860;SDS011;35761;48.826;9.238;2023-04-07T01:56:22;12.70;;;5.53;;
49860;SDS011;35761;48.826;9.238;2023-04-07T01:58:55;12.48;;;6.15;;
49860;SDS011;35761;48.826;9.238;2023-04-07T02:01:28;8.90;;;5.80;;
49860;SDS011;35761;48.826;9.238;2023-04-07T02:04:01;10.90;;;5.13;;
49860;SDS011;35761;48.826;9.238;2023-04-07T02:06:41;9.38;;;5.68;;
49860;SDS011;35761;48.826;9.238;2023-04-07T02:09:24;8.55;;;5.47;;
49860;SDS011;35761;48.826;9.238;2023-04-07T02:11:59;12.77;;;6.65;;
49860;SDS011;35761;48.826;9.238;2023-04-07T02:14:37;7.50;;;5.60;;
49860;SDS011;35761;48.826;9.238;2023-04-07T02:17:13;7.53;;;5.50;;
49860;SDS011;35761;48.826;9.238;2023-04-07T02:19:45;9.20;;;5.93;;
49860;SDS011;35761;48.826;9.238;2023-04-07T02:22:16;10.10;;;5.97;;
49860;SDS011;35761;48.826;9.238;2023-04-07T02:24:47;10.48;;;6.40;;
49860;SDS011;35761;48.826;9.238;2023-04-07T02:27:24;9.13;;;6.18;;
49860;SDS011;35761;48.826;9.238;2023-04-07T02:29:55;13.68;;;8.30;;
49860;SDS011;35761;48.826;9.238;2023-04-07T02:32:28;11.77;;;8.05;;
49860;SDS011;35761;48.826;9.238;2023-04-07T02:34:58;11.15;;;7.80;;
49860;SDS011;35761;48.826;9.238;2023-04-07T02:37:29;11.18;;;7.50;;
49860;SDS011;35761;48.826;9.238;2023-04-07T02:40:00;11.40;;;6.45;;
49860;SDS011;35761;48.826;9.238;2023-04-07T02:42:31;9.40;;;6.38;;
49860;SDS011;35761;48.826;9.238;2023-04-07T02:45:02;9.55;;;6.15;;
49860;SDS011;35761;48.826;9.238;2023-04-07T02:47:35;9.85;;;6.38;;
49860;SDS011;35761;48.826;9.238;2023-04-07T02:50:07;9.75;;;6.60;;
49860;SDS011;35761;48.826;9.238;2023-04-07T02:52:39;10.75;;;6.88;;
49860;SDS011;35761;48.826;9.238;2023-04-07T02:55:12;8.73;;;5.97;;
49860;SDS011;35761;48.826;9.238;2023-04-07T02:57:44;8.13;;;5.70;;
49860;SDS011;35761;48.826;9.238;2023-04-07T03:00:33;14.40;;;6.30;;
49860;SDS011;35761;48.826;9.238;2023-04-07T03:03:16;11.32;;;6.60;;
49860;SDS011;35761;48.826;9.238;2023-04-07T03:06:16;9.15;;;6.13;;
49860;SDS011;35761;48.826;9.238;2023-04-07T03:08:58;9.45;;;6.50;;
49860;SDS011;35761;48.826;9.238;2023-04-07T03:11:29;10.40;;;6.93;;
49860;SDS011;35761;48.826;9.238;2023-04-07T03:13:59;9.85;;;7.03;;
49860;SDS011;35761;48.826;9.238;2023-04-07T03:16:31;12.30;;;7.20;;
49860;SDS011;35761;48.826;9.238;2023-04-07T03:19:10;10.13;;;7.18;;
49860;SDS011;35761;48.826;9.238;2023-04-07T03:21:45;10.13;;;7.10;;
49860;SDS011;35761;48.826;9.238;2023-04-07T03:24:17;11.00;;;6.78;;
49860;SDS011;35761;48.826;9.238;2023-04-07T03:26:47;10.30;;;6.55;;
49860;SDS011;35761;48.826;9.238;2023-04-07T03:29:30;9.82;;;6.97;;
49860;SDS011;35761;48.826;9.238;2023-04-07T03:32:03;9.23;;;6.72;;
49860;SDS011;35761;48.826;9.238;2023-04-07T03:34:36;11.88;;;7.80;;
49860;SDS011;35761;48.826;9.238;2023-04-07T03:37:07;12.68;;;7.30;;
49860;SDS011;35761;48.826;9.238;2023-04-07T03:39:37;10.13;;;6.78;;
49860;SDS011;35761;48.826;9.238;2023-04-07T03:42:21;13.98;;;8.82;;
49860;SDS011;35761;48.826;9.238;2023-04-07T03:44:58;14.23;;;7.80;;
49860;SDS011;35761;48.826;9.238;2023-04-07T03:47:31;9.60;;;7.18;;
49860;SDS011;35761;48.826;9.238;2023-04-07T03:50:06;12.00;;;7.38;;
49860;SDS011;35761;48.826;9.238;2023-04-07T03:55:23;13.23;;;7.80;;
49860;SDS011;35761;48.826;9.238;2023-04-07T03:57:59;10.25;;;7.55;;
49860;SDS011;35761;48.826;9.238;2023-04-07T04:00:32;10.65;;;7.22;;
49860;SDS011;35761;48.826;9.238;2023-04-07T04:03:08;14.27;;;8.00;;
49860;SDS011;35761;48.826;9.238;2023-04-07T04:05:51;10.63;;;7.10;;
49860;SDS011;35761;48.826;9.238;2023-04-07T04:08:26;19.60;;;7.80;;
49860;SDS011;35761;48.826;9.238;2023-04-07T04:10:58;13.13;;;7.72;;
49860;SDS011;35761;48.826;9.238;2023-04-07T04:13:34;11.25;;;7.75;;
49860;SDS011;35761;48.826;9.238;2023-04-07T04:16:06;12.65;;;9.40;;
49860;SDS011;35761;48.826;9.238;2023-04-07T04:18:40;13.68;;;7.90;;
49860;SDS011;35761;48.826;9.238;2023-04-07T04:21:15;14.63;;;7.85;;
49860;SDS011;35761;48.826;9.238;2023-04-07T04:23:46;11.80;;;7.57;;
49860;SDS011;35761;48.826;9.238;2023-04-07T04:26:17;11.10;;;7.93;;
49860;SDS011;35761;48.826;9.238;2023-04-07T04:28:55;13.75;;;7.95;;
49860;SDS011;35761;48.826;9.238;2023-04-07T04:31:26;11.57;;;7.63;;
49860;SDS011;35761;48.826;9.238;2023-04-07T04:33:57;10.52;;;7.65;;
49860;SDS011;35761;48.826;9.238;2023-04-07T04:36:31;14.57;;;7.65;;
49860;SDS011;35761;48.826;9.238;2023-04-07T04:39:04;11.48;;;7.28;;
49860;SDS011;35761;48.826;9.238;2023-04-07T04:41:35;10.10;;;7.50;;
49860;SDS011;35761;48.826;9.238;2023-04-07T04:44:08;13.65;;;8.20;;
49860;SDS011;35761;48.826;9.238;2023-04-07T04:46:40;16.55;;;9.52;;
49860;SDS011;35761;48.826;9.238;2023-04-07T04:49:11;12.25;;;7.88;;
49860;SDS011;35761;48.826;9.238;2023-04-07T04:51:44;12.45;;;7.60;;
49860;SDS011;35761;48.826;9.238;2023-04-07T04:54:17;15.70;;;9.88;;
49860;SDS011;35761;48.826;9.238;2023-04-07T04:56:48;14.02;;;9.93;;
49860;SDS011;35761;48.826;9.238;2023-04-07T04:59:19;12.38;;;7.72;;
49860;SDS011;35761;48.826;9.238;2023-04-07T05:01:57;12.27;;;8.00;;
49860;SDS011;35761;48.826;9.238;2023-04-07T05:04:28;12.85;;;7.82;;
49860;SDS011;35761;48.826;9.238;2023-04-07T05:07:13;10.98;;;7.65;;
49860;SDS011;35761;48.826;9.238;2023-04-07T05:09:44;12.88;;;8.02;;
49860;SDS011;35761;48.826;9.238;2023-04-07T05:12:17;13.68;;;8.20;;
49860;SDS011;35761;48.826;9.238;2023-04-07T05:14:54;13.27;;;7.75;;
49860;SDS011;35761;48.826;9.238;2023-04-07T05:17:25;10.52;;;7.50;;
49860;SDS011;35761;48.826;9.238;2023-04-07T05:19:58;11.93;;;8.00;;
49860;SDS011;35761;48.826;9.238;2023-04-07T05:22:37;10.10;;;6.88;;
49860;SDS011;35761;48.826;9.238;2023-04-07T05:25:11;14.27;;;8.15;;
49860;SDS011;35761;48.826;9.238;2023-04-07T05:27:43;12.88;;;8.18;;
49860;SDS011;35761;48.826;9.238;2023-04-07T05:30:15;11.70;;;7.95;;
49860;SDS011;35761;48.826;9.238;2023-04-07T05:32:46;18.48;;;11.35;;
49860;SDS011;35761;48.826;9.238;2023-04-07T05:35:25;16.33;;;10.43;;
49860;SDS011;35761;48.826;9.238;2023-04-07T05:38:00;14.57;;;8.60;;
49860;SDS011;35761;48.826;9.238;2023-04-07T05:40:31;12.93;;;8.70;;
49860;SDS011;35761;48.826;9.238;2023-04-07T05:43:05;12.18;;;8.45;;
49860;SDS011;35761;48.826;9.238;2023-04-07T05:45:37;13.73;;;9.00;;
49860;SDS011;35761;48.826;9.238;2023-04-07T05:48:07;11.73;;;8.50;;
49860;SDS011;35761;48.826;9.238;2023-04-07T05:53:18;13.02;;;8.52;;
49860;SDS011;35761;48.826;9.238;2023-04-07T05:55:50;13.63;;;8.30;;
49860;SDS011;35761;48.826;9.238;2023-04-07T05:58:33;11.20;;;8.10;;
49860;SDS011;35761;48.826;9.238;2023-04-07T06:01:03;12.60;;;8.18;;
49860;SDS011;35761;48.826;9.238;2023-04-07T06:03:34;12.80;;;8.27;;
49860;SDS011;35761;48.826;9.238;2023-04-07T06:06:17;12.27;;;8.65;;
49860;SDS011;35761;48.826;9.238;2023-04-07T06:08:50;14.07;;;9.85;;
49860;SDS011;35761;48.826;9.238;2023-04-07T06:13:53;12.73;;;8.20;;
49860;SDS011;35761;48.826;9.238;2023-04-07T06:16:23;12.77;;;9.07;;
49860;SDS011;35761;48.826;9.238;2023-04-07T06:18:54;13.43;;;8.75;;
49860;SDS011;35761;48.826;9.238;2023-04-07T06:21:27;12.85;;;8.27;;
49860;SDS011;35761;48.826;9.238;2023-04-07T06:24:01;12.95;;;8.35;;
49860;SDS011;35761;48.826;9.238;2023-04-07T06:26:34;12.43;;;8.63;;
49860;SDS011;35761;48.826;9.238;2023-04-07T06:29:04;12.80;;;8.88;;
49860;SDS011;35761;48.826;9.238;2023-04-07T06:31:35;13.70;;;8.48;;
49860;SDS011;35761;48.826;9.238;2023-04-07T06:34:06;12.48;;;9.10;;
49860;SDS011;35761;48.826;9.238;2023-04-07T06:36:37;13.15;;;9.35;;
49860;SDS011;35761;48.826;9.238;2023-04-07T06:39:10;21.25;;;13.70;;
49860;SDS011;35761;48.826;9.238;2023-04-07T06:41:41;17.95;;;10.85;;
49860;SDS011;35761;48.826;9.238;2023-04-07T06:44:12;12.48;;;8.43;;
49860;SDS011;35761;48.826;9.238;2023-04-07T06:46:43;14.05;;;9.48;;
49860;SDS011;35761;48.826;9.238;2023-04-07T06:49:18;11.18;;;8.80;;
49860;SDS011;35761;48.826;9.238;2023-04-07T06:51:48;11.68;;;8.32;;
49860;SDS011;35761;48.826;9.238;2023-04-07T06:54:22;16.30;;;8.43;;
49860;SDS011;35761;48.826;9.238;2023-04-07T06:56:52;13.43;;;8.63;;
49860;SDS011;35761;48.826;9.238;2023-04-07T06:59:23;14.43;;;8.77;;
49860;SDS011;35761;48.826;9.238;2023-04-07T07:01:53;13.43;;;9.52;;
49860;SDS011;35761;48.826;9.238;2023-04-07T07:04:24;14.70;;;9.15;;
49860;SDS011;35761;48.826;9.238;2023-04-07T07:06:55;14.40;;;9.65;;
49860;SDS011;35761;48.826;9.238;2023-04-07T07:09:28;12.75;;;9.02;;
49860;SDS011;35761;48.826;9.238;2023-04-07T07:11:58;15.85;;;8.65;;
49860;SDS011;35761;48.826;9.238;2023-04-07T07:14:30;13.98;;;9.68;;
49860;SDS011;35761;48.826;9.238;2023-04-07T07:17:00;13.45;;;9.45;;
49860;SDS011;35761;48.826;9.238;2023-04-07T07:19:30;12.88;;;9.18;;
49860;SDS011;35761;48.826;9.238;2023-04-07T07:22:01;12.02;;;8.65;;
49860;SDS011;35761;48.826;9.238;2023-04-07T07:24:35;19.42;;;12.63;;
49860;SDS011;35761;48.826;9.238;2023-04-07T07:27:05;15.00;;;11.40;;
49860;SDS011;35761;48.826;9.238;2023-04-07T07:29:36;17.23;;;9.45;;
49860;SDS011;35761;48.826;9.238;2023-04-07T07:32:06;12.05;;;9.30;;
49860;SDS011;35761;48.826;9.238;2023-04-07T07:34:37;14.30;;;8.73;;
49860;SDS011;35761;48.826;9.238;2023-04-07T07:37:07;12.93;;;9.30;;
49860;SDS011;35761;48.826;9.238;2023-04-07T07:39:41;13.43;;;9.18;;
49860;SDS011;35761;48.826;9.238;2023-04-07T07:42:11;33.63;;;9.77;;
49860;SDS011;35761;48.826;9.238;2023-04-07T07:44:42;12.98;;;8.15;;
49860;SDS011;35761;48.826;9.238;2023-04-07T07:47:12;12.40;;;8.50;;
49860;SDS011;35761;48.826;9.238;2023-04-07T07:49:43;19.05;;;9.00;;
49860;SDS011;35761;48.826;9.238;2023-04-07T07:52:14;12.55;;;8.75;;
49860;SDS011;35761;48.826;9.238;2023-04-07T07:54:47;16.90;;;9.68;;
49860;SDS011;35761;48.826;9.238;2023-04-07T07:57:18;10.57;;;8.00;;
49860;SDS011;35761;48.826;9.238;2023-04-07T07:59:49;13.40;;;8.15;;
49860;SDS011;35761;48.826;9.238;2023-04-07T08:02:19;12.63;;;8.40;;
49860;SDS011;35761;48.826;9.238;2023-04-07T08:04:55;13.98;;;8.20;;
49860;SDS011;35761;48.826;9.238;2023-04-07T08:07:26;11.77;;;7.28;;
49860;SDS011;35761;48.826;9.238;2023-04-07T08:10:01;10.77;;;7.53;;
49860;SDS011;35761;48.826;9.238;2023-04-07T08:12:31;10.15;;;7.15;;
49860;SDS011;35761;48.826;9.238;2023-04-07T08:15:02;14.50;;;7.88;;
49860;SDS011;35761;48.826;9.238;2023-04-07T08:17:36;11.27;;;6.93;;
49860;SDS011;35761;48.826;9.238;2023-04-07T08:20:07;12.35;;;6.80;;
49860;SDS011;35761;48.826;9.238;2023-04-07T08:22:39;10.45;;;6.80;;
49860;SDS011;35761;48.826;9.238;2023-04-07T08:25:12;9.38;;;6.72;;
49860;SDS011;35761;48.826;9.238;2023-04-07T08:27:43;10.93;;;5.55;;
49860;SDS011;35761;48.826;9.238;2023-04-07T08:30:13;9.48;;;5.75;;
49860;SDS011;35761;48.826;9.238;2023-04-07T08:32:44;15.27;;;8.35;;
49860;SDS011;35761;48.826;9.238;2023-04-07T08:35:15;7.22;;;5.13;;
49860;SDS011;35761;48.826;9.238;2023-04-07T08:37:45;10.45;;;5.45;;
49860;SDS011;35761;48.826;9.238;2023-04-07T08:40:18;9.32;;;5.43;;
49860;SDS011;35761;48.826;9.238;2023-04-07T08:42:49;9.73;;;5.35;;
49860;SDS011;35761;48.826;9.238;2023-04-07T08:45:20;12.68;;;5.30;;
49860;SDS011;35761;48.826;9.238;2023-04-07T08:47:52;8.70;;;5.68;;
49860;SDS011;35761;48.826;9.238;2023-04-07T08:50:25;9.27;;;6.07;;
49860;SDS011;35761;48.826;9.238;2023-04-07T08:52:56;14.20;;;6.10;;
49860;SDS011;35761;48.826;9.238;2023-04-07T08:55:36;17.83;;;7.00;;
49860;SDS011;35761;48.826;9.238;2023-04-07T08:58:08;13.38;;;6.82;;
49860;SDS011;35761;48.826;9.238;2023-04-07T09:00:41;10.13;;;5.60;;
49860;SDS011;35761;48.826;9.238;2023-04-07T09:03:15;9.57;;;5.57;;
49860;SDS011;35761;48.826;9.238;2023-04-07T09:05:46;9.48;;;6.38;;
49860;SDS011;35761;48.826;9.238;2023-04-07T09:08:22;9.63;;;5.90;;
49860;SDS011;35761;48.826;9.238;2023-04-07T09:10:55;19.75;;;12.60;;
49860;SDS011;35761;48.826;9.238;2023-04-07T09:13:26;24.05;;;12.02;;
49860;SDS011;35761;48.826;9.238;2023-04-07T09:15:57;33.90;;;8.98;;
49860;SDS011;35761;48.826;9.238;2023-04-07T09:18:31;9.73;;;6.30;;
49860;SDS011;35761;48.826;9.238;2023-04-07T09:21:02;9.10;;;5.45;;
49860;SDS011;35761;48.826;9.238;2023-04-07T09:23:35;12.18;;;6.47;;
49860;SDS011;35761;48.826;9.238;2023-04-07T09:26:22;12.40;;;5.32;;
49860;SDS011;35761;48.826;9.238;2023-04-07T09:28:55;11.07;;;5.65;;
49860;SDS011;35761;48.826;9.238;2023-04-07T09:31:42;11.15;;;5.95;;
49860;SDS011;35761;48.826;9.238;2023-04-07T09:34:25;8.88;;;5.55;;
49860;SDS011;35761;48.826;9.238;2023-04-07T09:36:58;10.93;;;5.75;;
49860;SDS011;35761;48.826;9.238;2023-04-07T09:39:29;9.23;;;5.35;;
49860;SDS011;35761;48.826;9.238;2023-04-07T09:42:07;14.18;;;6.43;;
49860;SDS011;35761;48.826;9.238;2023-04-07T09:44:38;12.43;;;7.53;;
49860;SDS011;35761;48.826;9.238;2023-04-07T09:47:09;7.07;;;5.53;;
49860;SDS011;35761;48.826;9.238;2023-04-07T09:49:50;13.27;;;7.05;;
49860;SDS011;35761;48.826;9.238;2023-04-07T09:52:24;8.25;;;5.32;;
49860;SDS011;35761;48.826;9.238;2023-04-07T09:55:19;15.40;;;5.57;;
49860;SDS011;35761;48.826;9.238;2023-04-07T09:57:54;10.23;;;5.63;;
49860;SDS011;35761;48.826;9.238;2023-04-07T10:00:25;13.05;;;7.78;;
49860;SDS011;35761;48.826;9.238;2023-04-07T10:02:56;11.00;;;6.10;;
49860;SDS011;35761;48.826;9.238;2023-04-07T10:05:27;10.85;;;6.00;;
49860;SDS011;35761;48.826;9.238;2023-04-07T10:07:59;12.25;;;8.52;;
49860;SDS011;35761;48.826;9.238;2023-04-07T10:10:30;10.32;;;6.95;;
49860;SDS011;35761;48.826;9.238;2023-04-07T10:13:05;12.10;;;7.75;;
49860;SDS011;35761;48.826;9.238;2023-04-07T10:15:36;13.45;;;6.45;;
49860;SDS011;35761;48.826;9.238;2023-04-07T10:18:07;11.32;;;5.47;;
49860;SDS011;35761;48.826;9.238;2023-04-07T10:20:38;12.10;;;6.13;;
49860;SDS011;35761;48.826;9.238;2023-04-07T10:23:12;9.82;;;5.45;;
49860;SDS011;35761;48.826;9.238;2023-04-07T10:25:48;8.43;;;5.00;;
49860;SDS011;35761;48.826;9.238;2023-04-07T10:28:24;11.65;;;6.65;;
49860;SDS011;35761;48.826;9.238;2023-04-07T10:30:56;9.25;;;5.93;;
49860;SDS011;35761;48.826;9.238;2023-04-07T10:36:28;10.75;;;5.82;;
49860;SDS011;35761;48.826;9.238;2023-04-07T10:41:50;10.82;;;5.70;;
49860;SDS011;35761;48.826;9.238;2023-04-07T10:47:19;8.52;;;5.68;;
49860;SDS011;35761;48.826;9.238;2023-04-07T10:52:47;11.40;;;6.47;;
49860;SDS011;35761;48.826;9.238;2023-04-07T10:55:32;12.85;;;6.22;;
49860;SDS011;35761;48.826;9.238;2023-04-07T10:58:14;10.73;;;5.68;;
49860;SDS011;35761;48.826;9.238;2023-04-07T11:03:51;10.77;;;5.15;;
49860;SDS011;35761;48.826;9.238;2023-04-07T11:06:28;10.30;;;4.78;;
49860;SDS011;35761;48.826;9.238;2023-04-07T11:08:58;18.40;;;7.85;;
49860;SDS011;35761;48.826;9.238;2023-04-07T11:11:36;8.85;;;4.85;;
49860;SDS011;35761;48.826;9.238;2023-04-07T11:14:08;9.15;;;4.55;;
49860;SDS011;35761;48.826;9.238;2023-04-07T11:16:42;11.27;;;4.47;;
49860;SDS011;35761;48.826;9.238;2023-04-07T11:19:12;9.07;;;4.82;;
49860;SDS011;35761;48.826;9.238;2023-04-07T11:21:43;8.18;;;4.68;;
49860;SDS011;35761;48.826;9.238;2023-04-07T11:24:31;8.30;;;4.53;;
49860;SDS011;35761;48.826;9.238;2023-04-07T11:27:03;9.27;;;4.80;;
49860;SDS011;35761;48.826;9.238;2023-04-07T11:29:34;15.48;;;5.30;;
49860;SDS011;35761;48.826;9.238;2023-04-07T11:32:07;10.25;;;4.80;;
49860;SDS011;35761;48.826;9.238;2023-04-07T11:34:38;8.50;;;5.03;;
49860;SDS011;35761;48.826;9.238;2023-04-07T11:37:19;10.75;;;5.22;;
49860;SDS011;35761;48.826;9.238;2023-04-07T11:39:51;9.45;;;4.95;;
49860;SDS011;35761;48.826;9.238;2023-04-07T11:42:32;8.05;;;4.10;;
49860;SDS011;35761;48.826;9.238;2023-04-07T11:45:03;17.90;;;7.45;;
49860;SDS011;35761;48.826;9.238;2023-04-07T11:47:38;7.95;;;4.03;;
49860;SDS011;35761;48.826;9.238;2023-04-07T11:50:09;13.05;;;4.10;;
49860;SDS011;35761;48.826;9.238;2023-04-07T11:52:40;7.03;;;4.15;;
49860;SDS011;35761;48.826;9.238;2023-04-07T11:55:18;12.30;;;6.53;;
49860;SDS011;35761;48.826;9.238;2023-04-07T11:57:50;11.00;;;4.97;;
49860;SDS011;35761;48.826;9.238;2023-04-07T12:00:20;8.07;;;3.72;;
49860;SDS011;35761;48.826;9.238;2023-04-07T12:02:54;9.98;;;5.53;;
49860;SDS011;35761;48.826;9.238;2023-04-07T12:05:25;8.88;;;4.40;;
49860;SDS011;35761;48.826;9.238;2023-04-07T12:08:11;9.07;;;4.57;;
49860;SDS011;35761;48.826;9.238;2023-04-07T12:10:42;8.10;;;3.78;;
49860;SDS011;35761;48.826;9.238;2023-04-07T12:13:14;9.73;;;3.85;;
49860;SDS011;35761;48.826;9.238;2023-04-07T12:15:45;12.18;;;4.43;;
49860;SDS011;35761;48.826;9.238;2023-04-07T12:18:18;8.68;;;4.35;;
49860;SDS011;35761;48.826;9.238;2023-04-07T12:20:48;10.20;;;3.90;;
49860;SDS011;35761;48.826;9.238;2023-04-07T12:23:19;7.63;;;4.05;;
49860;SDS011;35761;48.826;9.238;2023-04-07T12:25:50;10.32;;;3.92;;
49860;SDS011;35761;48.826;9.238;2023-04-07T12:28:20;7.78;;;3.17;;
49860;SDS011;35761;48.826;9.238;2023-04-07T12:30:51;10.32;;;4.07;;
49860;SDS011;35761;48.826;9.238;2023-04-07T12:33:24;8.73;;;3.58;;
49860;SDS011;35761;48.826;9.238;2023-04-07T12:35:55;8.57;;;3.65;;
49860;SDS011;35761;48.826;9.238;2023-04-07T12:38:26;8.48;;;3.88;;
49860;SDS011;35761;48.826;9.238;2023-04-07T12:40:57;10.70;;;4.15;;
49860;SDS011;35761;48.826;9.238;2023-04-07T12:43:29;10.77;;;4.45;;
49860;SDS011;35761;48.826;9.238;2023-04-07T12:46:00;7.13;;;3.80;;
49860;SDS011;35761;48.826;9.238;2023-04-07T12:48:33;10.40;;;3.78;;
49860;SDS011;35761;48.826;9.238;2023-04-07T12:51:03;6.53;;;3.60;;
49860;SDS011;35761;48.826;9.238;2023-04-07T12:53:34;7.63;;;3.72;;
49860;SDS011;35761;48.826;9.238;2023-04-07T12:56:05;10.80;;;3.45;;
49860;SDS011;35761;48.826;9.238;2023-04-07T12:58:35;6.28;;;3.25;;
49860;SDS011;35761;48.826;9.238;2023-04-07T13:01:06;7.78;;;3.90;;
49860;SDS011;35761;48.826;9.238;2023-04-07T13:03:40;7.38;;;3.47;;
49860;SDS011;35761;48.826;9.238;2023-04-07T13:06:11;10.98;;;2.97;;
49860;SDS011;35761;48.826;9.238;2023-04-07T13:08:41;7.32;;;3.00;;
49860;SDS011;35761;48.826;9.238;2023-04-07T13:11:12;6.03;;;2.47;;
49860;SDS011;35761;48.826;9.238;2023-04-07T13:13:43;6.45;;;2.38;;
49860;SDS011;35761;48.826;9.238;2023-04-07T13:16:14;5.03;;;2.60;;
49860;SDS011;35761;48.826;9.238;2023-04-07T13:18:47;6.28;;;2.38;;
49860;SDS011;35761;48.826;9.238;2023-04-07T13:21:17;6.60;;;2.30;;
49860;SDS011;35761;48.826;9.238;2023-04-07T13:23:51;8.05;;;3.13;;
49860;SDS011;35761;48.826;9.238;2023-04-07T13:26:22;6.63;;;3.03;;
49860;SDS011;35761;48.826;9.238;2023-04-07T13:28:54;7.95;;;3.33;;
49860;SDS011;35761;48.826;9.238;2023-04-07T13:31:24;8.52;;;3.25;;
49860;SDS011;35761;48.826;9.238;2023-04-07T13:33:58;11.02;;;5.97;;
49860;SDS011;35761;48.826;9.238;2023-04-07T13:36:29;7.30;;;3.70;;
49860;SDS011;35761;48.826;9.238;2023-04-07T13:39:00;7.05;;;3.25;;
49860;SDS011;35761;48.826;9.238;2023-04-07T13:41:30;8.32;;;3.45;;
49860;SDS011;35761;48.826;9.238;2023-04-07T13:44:01;7.80;;;3.80;;
49860;SDS011;35761;48.826;9.238;2023-04-07T13:46:31;9.75;;;3.65;;
49860;SDS011;35761;48.826;9.238;2023-04-07T13:49:05;7.30;;;3.17;;
49860;SDS011;35761;48.826;9.238;2023-04-07T13:51:35;13.07;;;3.67;;
49860;SDS011;35761;48.826;9.238;2023-04-07T13:54:07;6.43;;;3.53;;
49860;SDS011;35761;48.826;9.238;2023-04-07T13:56:37;7.13;;;2.72;;
49860;SDS011;35761;48.826;9.238;2023-04-07T13:59:08;8.32;;;3.10;;
49860;SDS011;35761;48.826;9.238;2023-04-07T14:01:38;9.32;;;3.30;;
49860;SDS011;35761;48.826;9.238;2023-04-07T14:04:12;6.28;;;2.90;;
49860;SDS011;35761;48.826;9.238;2023-04-07T14:06:43;8.40;;;2.80;;
49860;SDS011;35761;48.826;9.238;2023-04-07T14:09:13;8.60;;;4.10;;
49860;SDS011;35761;48.826;9.238;2023-04-07T14:11:44;6.53;;;2.70;;
49860;SDS011;35761;48.826;9.238;2023-04-07T14:14:14;11.00;;;2.92;;
49860;SDS011;35761;48.826;9.238;2023-04-07T14:16:45;4.90;;;2.50;;
49860;SDS011;35761;48.826;9.238;2023-04-07T14:19:20;7.43;;;3.10;;
49860;SDS011;35761;48.826;9.238;2023-04-07T14:21:51;7.90;;;3.42;;
49860;SDS011;35761;48.826;9.238;2023-04-07T14:24:22;5.38;;;2.35;;
49860;SDS011;35761;48.826;9.238;2023-04-07T14:26:53;15.65;;;9.10;;
49860;SDS011;35761;48.826;9.238;2023-04-07T14:29:24;7.25;;;3.10;;
49860;SDS011;35761;48.826;9.238;2023-04-07T14:31:55;6.57;;;3.28;;
49860;SDS011;35761;48.826;9.238;2023-04-07T14:34:28;5.78;;;2.83;;
49860;SDS011;35761;48.826;9.238;2023-04-07T14:36:59;6.90;;;2.70;;
49860;SDS011;35761;48.826;9.238;2023-04-07T14:39:29;5.72;;;2.45;;
49860;SDS011;35761;48.826;9.238;2023-04-07T14:42:00;7.32;;;2.60;;
49860;SDS011;35761;48.826;9.238;2023-04-07T14:44:30;5.88;;;2.80;;
49860;SDS011;35761;48.826;9.238;2023-04-07T14:47:01;7.18;;;2.60;;
49860;SDS011;35761;48.826;9.238;2023-04-07T14:49:35;5.68;;;2.80;;
49860;SDS011;35761;48.826;9.238;2023-04-07T14:52:06;6.35;;;2.53;;
49860;SDS011;35761;48.826;9.238;2023-04-07T14:54:39;6.90;;;2.67;;
49860;SDS011;35761;48.826;9.238;2023-04-07T14:57:10;5.70;;;2.95;;
49860;SDS011;35761;48.826;9.238;2023-04-07T14:59:40;6.65;;;2.40;;
49860;SDS011;35761;48.826;9.238;2023-04-07T15:02:11;7.03;;;2.88;;
49860;SDS011;35761;48.826;9.238;2023-04-07T15:04:44;12.70;;;3.83;;
49860;SDS011;35761;48.826;9.238;2023-04-07T15:07:15;6.22;;;3.60;;
49860;SDS011;35761;48.826;9.238;2023-04-07T15:09:47;6.85;;;2.70;;
49860;SDS011;35761;48.826;9.238;2023-04-07T15:12:18;6.30;;;2.90;;
49860;SDS011;35761;48.826;9.238;2023-04-07T15:14:49;7.57;;;2.88;;
49860;SDS011;35761;48.826;9.238;2023-04-07T15:17:21;4.65;;;3.10;;
49860;SDS011;35761;48.826;9.238;2023-04-07T15:20:11;8.05;;;3.88;;
49860;SDS011;35761;48.826;9.238;2023-04-07T15:22:42;12.60;;;6.37;;
49860;SDS011;35761;48.826;9.238;2023-04-07T15:25:13;9.88;;;3.65;;
49860;SDS011;35761;48.826;9.238;2023-04-07T15:27:44;9.80;;;4.07;;
49860;SDS011;35761;48.826;9.238;2023-04-07T15:30:15;8.05;;;3.10;;
49860;SDS011;35761;48.826;9.238;2023-04-07T15:32:55;6.50;;;3.10;;
49860;SDS011;35761;48.826;9.238;2023-04-07T15:35:29;9.10;;;3.38;;
49860;SDS011;35761;48.826;9.238;2023-04-07T15:38:01;8.52;;;3.30;;